createdAt,value
2018-01-03T00:00:41.315Z,991.36
2018-01-03T00:02:34.596Z,991.09
2018-01-03T00:03:34.506Z,991.05
2018-01-03T00:05:27.781Z,991.04
2018-01-03T00:06:27.691Z,990.98
2018-01-03T00:08:20.951Z,990.88
2018-01-03T00:09:20.876Z,990.85
2018-01-03T00:11:14.156Z,990.77
2018-01-03T00:12:14.066Z,990.76
2018-01-03T00:14:07.383Z,990.69
2018-01-03T00:15:07.353Z,990.66
2018-01-03T00:17:01.572Z,990.53
2018-01-03T00:18:01.483Z,990.50
2018-01-03T00:19:54.848Z,990.45
2018-01-03T00:20:54.669Z,990.41
2018-01-03T00:22:47.941Z,990.27
2018-01-03T00:23:47.855Z,990.37
2018-01-03T00:25:41.128Z,990.25
2018-01-03T00:26:41.039Z,990.15
2018-01-03T00:28:34.399Z,990.10
2018-01-03T00:29:34.225Z,990.06
2018-01-03T00:31:27.488Z,989.99
2018-01-03T00:32:27.396Z,989.92
2018-01-03T00:34:20.651Z,989.83
2018-01-03T00:35:20.581Z,989.68
2018-01-03T00:37:13.844Z,989.68
2018-01-03T00:38:13.755Z,989.69
2018-01-03T00:40:07.003Z,989.70
2018-01-03T00:41:06.929Z,989.64
2018-01-03T00:43:01.204Z,989.60
2018-01-03T00:44:01.114Z,989.61
2018-01-03T00:45:54.386Z,989.65
2018-01-03T00:46:54.296Z,989.63
2018-01-03T00:48:47.545Z,989.52
2018-01-03T00:49:47.469Z,989.51
2018-01-03T00:51:40.742Z,989.39
2018-01-03T00:52:40.656Z,989.37
2018-01-03T00:54:33.917Z,989.26
2018-01-03T00:55:33.839Z,989.23
2018-01-03T00:57:27.114Z,989.05
2018-01-03T00:58:27.029Z,989.03
2018-01-03T01:00:20.319Z,988.96
2018-01-03T01:01:20.202Z,988.89
2018-01-03T01:03:13.480Z,988.77
2018-01-03T01:04:13.389Z,988.71
2018-01-03T01:06:06.651Z,988.59
2018-01-03T01:07:06.563Z,988.54
2018-01-03T01:08:59.817Z,988.36
2018-01-03T01:09:59.744Z,988.29
2018-01-03T01:11:53.130Z,988.32
2018-01-03T01:12:52.929Z,988.21
2018-01-03T01:14:46.188Z,988.01
2018-01-03T01:15:46.115Z,987.94
2018-01-03T01:17:39.403Z,987.84
2018-01-03T01:18:39.309Z,987.75
2018-01-03T01:20:32.564Z,987.59
2018-01-03T01:21:32.492Z,987.57
2018-01-03T01:23:25.757Z,987.40
2018-01-03T01:24:25.667Z,987.27
2018-01-03T01:26:18.940Z,987.17
2018-01-03T01:27:18.851Z,987.10
2018-01-03T01:29:12.109Z,986.86
2018-01-03T01:30:12.055Z,986.77
2018-01-03T01:32:05.406Z,986.61
2018-01-03T01:33:05.311Z,986.63
2018-01-03T01:34:58.566Z,986.64
2018-01-03T01:35:58.499Z,986.63
2018-01-03T01:37:51.879Z,986.43
2018-01-03T01:38:51.683Z,986.36
2018-01-03T01:40:44.941Z,986.37
2018-01-03T01:41:44.870Z,986.33
2018-01-03T01:43:38.150Z,986.19
2018-01-03T01:44:38.059Z,986.07
2018-01-03T01:46:31.396Z,985.96
2018-01-03T01:47:31.308Z,985.88
2018-01-03T01:49:24.559Z,985.70
2018-01-03T01:50:24.484Z,985.59
2018-01-03T01:52:17.765Z,985.59
2018-01-03T01:53:17.677Z,985.42
2018-01-03T01:55:10.932Z,985.44
2018-01-03T01:56:10.863Z,985.40
2018-01-03T01:58:04.137Z,985.24
2018-01-03T01:59:04.097Z,985.11
2018-01-03T02:00:57.378Z,985.00
2018-01-03T02:01:57.308Z,985.13
2018-01-03T02:03:50.580Z,984.98
2018-01-03T02:04:50.493Z,984.99
2018-01-03T02:06:43.877Z,984.95
2018-01-03T02:07:43.682Z,984.89
2018-01-03T02:09:36.926Z,984.63
2018-01-03T02:10:36.855Z,984.55
2018-01-03T02:12:30.132Z,984.31
2018-01-03T02:13:30.042Z,984.22
2018-01-03T02:15:23.378Z,984.14
2018-01-03T02:16:23.309Z,984.11
2018-01-03T02:18:16.583Z,983.95
2018-01-03T02:19:16.495Z,983.94
2018-01-03T02:21:09.751Z,983.85
2018-01-03T02:22:09.681Z,983.83
2018-01-03T02:24:03.064Z,983.56
2018-01-03T02:25:02.864Z,983.49
2018-01-03T02:26:56.141Z,983.21
2018-01-03T02:27:56.050Z,983.15
2018-01-03T02:29:49.377Z,982.93
2018-01-03T02:30:49.309Z,982.87
2018-01-03T02:32:42.583Z,982.66
2018-01-03T02:33:42.495Z,982.66
2018-01-03T02:35:35.749Z,982.55
2018-01-03T02:36:35.681Z,982.44
2018-01-03T02:38:29.064Z,982.34
2018-01-03T02:39:28.865Z,982.25
2018-01-03T02:41:22.129Z,982.16
2018-01-03T02:42:22.057Z,981.94
2018-01-03T02:44:15.396Z,981.97
2018-01-03T02:45:15.308Z,981.93
2018-01-03T02:47:08.583Z,981.93
2018-01-03T02:48:08.493Z,981.95
2018-01-03T02:50:01.741Z,981.82
2018-01-03T02:51:01.671Z,981.82
2018-01-03T02:52:54.946Z,981.53
2018-01-03T02:53:54.858Z,981.55
2018-01-03T02:55:48.112Z,981.49
2018-01-03T02:56:48.044Z,981.35
2018-01-03T02:58:41.426Z,981.49
2018-01-03T02:59:41.307Z,981.26
2018-01-03T03:01:34.557Z,981.21
2018-01-03T03:02:34.492Z,981.04
2018-01-03T03:04:27.876Z,980.88
2018-01-03T03:05:27.677Z,980.59
2018-01-03T03:07:20.953Z,980.64
2018-01-03T03:08:20.863Z,980.55
2018-01-03T03:10:14.230Z,980.48
2018-01-03T03:11:14.051Z,980.35
2018-01-03T03:13:07.397Z,980.17
2018-01-03T03:14:07.305Z,980.05
2018-01-03T03:16:00.671Z,979.83
2018-01-03T03:17:00.490Z,979.75
2018-01-03T03:18:53.767Z,979.74
2018-01-03T03:19:53.675Z,979.63
2018-01-03T03:21:46.933Z,979.56
2018-01-03T03:22:46.872Z,979.53
2018-01-03T03:24:40.147Z,979.43
2018-01-03T03:25:40.056Z,979.32
2018-01-03T03:27:33.441Z,979.23
2018-01-03T03:28:33.307Z,979.15
2018-01-03T03:30:26.575Z,979.23
2018-01-03T03:31:26.495Z,979.08
2018-01-03T03:33:19.878Z,979.15
2018-01-03T03:34:19.683Z,979.04
2018-01-03T03:36:13.050Z,978.93
2018-01-03T03:37:12.871Z,978.91
2018-01-03T03:39:06.148Z,978.52
2018-01-03T03:40:06.057Z,978.46
2018-01-03T03:41:59.426Z,978.52
2018-01-03T03:42:59.307Z,978.43
2018-01-03T03:44:52.584Z,978.40
2018-01-03T03:45:52.497Z,978.33
2018-01-03T03:47:45.773Z,978.15
2018-01-03T03:48:45.682Z,978.12
2018-01-03T03:50:38.937Z,978.15
2018-01-03T03:51:38.870Z,978.15
2018-01-03T03:53:32.147Z,977.95
2018-01-03T03:54:32.058Z,977.85
2018-01-03T03:56:25.377Z,977.85
2018-01-03T03:57:25.307Z,977.84
2018-01-03T03:59:18.586Z,977.84
2018-01-03T04:00:18.502Z,977.62
2018-01-03T04:02:11.760Z,977.64
2018-01-03T04:03:11.689Z,977.55
2018-01-03T04:05:04.966Z,977.52
2018-01-03T04:06:04.883Z,977.62
2018-01-03T04:07:58.153Z,977.55
2018-01-03T04:08:58.065Z,977.56
2018-01-03T04:10:51.432Z,977.48
2018-01-03T04:11:51.309Z,977.64
2018-01-03T04:13:44.588Z,977.50
2018-01-03T04:14:44.500Z,977.44
2018-01-03T04:16:37.751Z,977.60
2018-01-03T04:17:37.685Z,977.75
2018-01-03T04:19:30.956Z,977.56
2018-01-03T04:20:30.870Z,977.64
2018-01-03T04:22:24.130Z,977.72
2018-01-03T04:23:24.059Z,977.90
2018-01-03T04:25:17.397Z,977.96
2018-01-03T04:26:17.306Z,978.09
2018-01-03T04:28:10.584Z,979.09
2018-01-03T04:29:10.495Z,979.01
2018-01-03T04:31:03.864Z,978.78
2018-01-03T04:32:03.683Z,978.60
2018-01-03T04:33:56.958Z,978.58
2018-01-03T04:34:56.872Z,978.42
2018-01-03T04:36:50.130Z,978.23
2018-01-03T04:37:50.062Z,978.15
2018-01-03T04:39:43.400Z,977.69
2018-01-03T04:40:43.311Z,977.81
2018-01-03T04:42:36.681Z,977.76
2018-01-03T04:43:36.502Z,977.74
2018-01-03T04:45:29.779Z,977.85
2018-01-03T04:46:29.688Z,977.91
2018-01-03T04:48:22.962Z,977.66
2018-01-03T04:49:22.878Z,977.64
2018-01-03T04:51:16.242Z,977.85
2018-01-03T04:52:16.067Z,977.79
2018-01-03T04:54:09.401Z,977.79
2018-01-03T04:55:09.311Z,978.00
2018-01-03T04:57:02.567Z,977.87
2018-01-03T04:58:02.498Z,978.01
2018-01-03T04:59:55.766Z,977.89
2018-01-03T05:00:55.679Z,977.91
2018-01-03T05:02:49.042Z,977.84
2018-01-03T05:03:48.874Z,977.84
2018-01-03T05:05:42.157Z,977.87
2018-01-03T05:06:42.061Z,977.95
2018-01-03T05:08:35.401Z,978.01
2018-01-03T05:09:35.309Z,977.93
2018-01-03T05:11:28.569Z,977.85
2018-01-03T05:12:28.496Z,977.83
2018-01-03T05:14:21.777Z,977.82
2018-01-03T05:15:21.691Z,977.74
2018-01-03T05:17:14.949Z,977.71
2018-01-03T05:18:14.880Z,977.80
2018-01-03T05:20:08.149Z,977.68
2018-01-03T05:21:08.063Z,977.64
2018-01-03T05:23:01.376Z,977.43
2018-01-03T05:24:01.309Z,977.48
2018-01-03T05:25:54.586Z,977.69
2018-01-03T05:26:54.499Z,977.68
2018-01-03T05:28:47.776Z,977.79
2018-01-03T05:29:47.686Z,977.89
2018-01-03T05:31:40.949Z,978.00
2018-01-03T05:32:40.882Z,977.99
2018-01-03T05:34:34.167Z,977.89
2018-01-03T05:35:34.078Z,977.85
2018-01-03T05:37:27.380Z,977.95
2018-01-03T05:38:27.308Z,977.98
2018-01-03T05:40:20.579Z,977.92
2018-01-03T05:41:20.491Z,977.91
2018-01-03T05:43:13.859Z,978.06
2018-01-03T05:44:13.685Z,978.03
2018-01-03T05:46:07.071Z,978.01
2018-01-03T05:47:06.872Z,978.20
2018-01-03T05:49:00.152Z,978.15
2018-01-03T05:50:00.064Z,978.23
2018-01-03T05:51:53.379Z,978.23
2018-01-03T05:52:53.310Z,978.13
2018-01-03T05:54:46.622Z,978.23
2018-01-03T05:55:46.533Z,978.18
2018-01-03T05:57:39.794Z,978.16
2018-01-03T05:58:39.726Z,978.10
2018-01-03T06:00:33.001Z,978.06
2018-01-03T06:01:32.917Z,977.96
2018-01-03T06:03:26.177Z,977.95
2018-01-03T06:04:26.107Z,978.07
2018-01-03T06:06:19.398Z,978.00
2018-01-03T06:07:19.310Z,977.89
2018-01-03T06:09:12.587Z,977.96
2018-01-03T06:10:12.504Z,978.02
2018-01-03T06:12:05.761Z,978.11
2018-01-03T06:13:05.692Z,978.05
2018-01-03T06:14:58.971Z,977.99
2018-01-03T06:15:58.883Z,977.89
2018-01-03T06:17:52.143Z,977.97
2018-01-03T06:18:52.074Z,978.05
2018-01-03T06:20:45.398Z,978.09
2018-01-03T06:21:45.310Z,978.10
2018-01-03T06:23:38.677Z,978.09
2018-01-03T06:24:38.500Z,978.07
2018-01-03T06:26:31.777Z,978.02
2018-01-03T06:27:31.690Z,978.01
2018-01-03T06:29:24.971Z,977.99
2018-01-03T06:30:24.886Z,977.99
2018-01-03T06:32:18.153Z,977.94
2018-01-03T06:33:18.087Z,978.04
2018-01-03T06:35:11.396Z,977.89
2018-01-03T06:36:11.309Z,977.89
2018-01-03T06:38:04.571Z,977.87
2018-01-03T06:39:04.498Z,977.85
2018-01-03T06:40:57.777Z,977.82
2018-01-03T06:41:57.691Z,977.73
2018-01-03T06:43:50.949Z,977.68
2018-01-03T06:44:50.881Z,977.64
2018-01-03T06:46:44.158Z,977.60
2018-01-03T06:47:44.071Z,977.55
2018-01-03T06:49:37.398Z,977.44
2018-01-03T06:50:37.314Z,977.46
2018-01-03T06:52:30.680Z,977.55
2018-01-03T06:53:30.502Z,977.51
2018-01-03T06:55:23.780Z,977.47
2018-01-03T06:56:23.694Z,977.41
2018-01-03T06:58:17.063Z,977.53
2018-01-03T06:59:16.901Z,977.49
2018-01-03T07:01:10.184Z,977.48
2018-01-03T07:02:10.092Z,977.44
2018-01-03T07:04:03.378Z,977.34
2018-01-03T07:05:03.310Z,977.31
2018-01-03T07:06:56.589Z,977.31
2018-01-03T07:07:56.502Z,977.31
2018-01-03T07:09:49.770Z,977.30
2018-01-03T07:10:49.685Z,977.29
2018-01-03T07:12:42.943Z,977.27
2018-01-03T07:13:42.874Z,977.35
2018-01-03T07:15:36.152Z,977.36
2018-01-03T07:16:36.063Z,977.41
2018-01-03T07:18:29.380Z,977.37
2018-01-03T07:19:29.311Z,977.37
2018-01-03T07:21:22.593Z,977.35
2018-01-03T07:22:22.508Z,977.41
2018-01-03T07:24:15.766Z,977.42
2018-01-03T07:25:15.697Z,977.23
2018-01-03T07:27:09.004Z,977.31
2018-01-03T07:28:08.887Z,977.30
2018-01-03T07:30:02.274Z,977.31
2018-01-03T07:31:02.080Z,977.15
2018-01-03T07:32:55.381Z,977.18
2018-01-03T07:33:55.311Z,977.16
2018-01-03T07:35:48.698Z,977.27
2018-01-03T07:36:48.522Z,977.21
2018-01-03T07:38:41.772Z,977.16
2018-01-03T07:39:41.699Z,977.36
2018-01-03T07:41:34.981Z,977.17
2018-01-03T07:42:34.895Z,977.37
2018-01-03T07:44:28.151Z,977.39
2018-01-03T07:45:28.083Z,977.73
2018-01-03T07:47:21.407Z,977.90
2018-01-03T07:48:21.309Z,977.92
2018-01-03T07:50:14.592Z,978.12
2018-01-03T07:51:14.504Z,977.94
2018-01-03T07:53:07.760Z,977.94
2018-01-03T07:54:07.689Z,977.84
2018-01-03T07:56:01.077Z,977.92
2018-01-03T07:57:00.881Z,978.17
2018-01-03T07:58:54.139Z,978.24
2018-01-03T07:59:54.074Z,978.18
2018-01-03T08:01:47.955Z,978.13
2018-01-03T08:02:47.310Z,978.28
2018-01-03T08:04:40.570Z,978.44
2018-01-03T08:05:40.499Z,978.39
2018-01-03T08:07:33.779Z,978.48
2018-01-03T08:08:33.680Z,978.48
2018-01-03T08:10:26.987Z,978.41
2018-01-03T08:11:26.899Z,978.43
2018-01-03T08:13:20.150Z,978.53
2018-01-03T08:14:20.084Z,978.55
2018-01-03T08:16:13.406Z,978.59
2018-01-03T08:17:13.308Z,978.68
2018-01-03T08:19:06.574Z,978.84
2018-01-03T08:20:06.491Z,978.87
2018-01-03T08:21:59.779Z,978.82
2018-01-03T08:22:59.691Z,979.01
2018-01-03T08:24:52.946Z,978.97
2018-01-03T08:25:52.877Z,978.96
2018-01-03T08:27:46.153Z,979.01
2018-01-03T08:28:46.063Z,979.03
2018-01-03T08:30:39.393Z,979.01
2018-01-03T08:31:39.309Z,979.03
2018-01-03T08:33:32.561Z,979.06
2018-01-03T08:34:32.491Z,979.04
2018-01-03T08:36:25.766Z,979.10
2018-01-03T08:37:25.680Z,979.16
2018-01-03T08:39:19.055Z,979.18
2018-01-03T08:40:18.870Z,979.30
2018-01-03T08:42:12.147Z,979.21
2018-01-03T08:43:12.055Z,979.29
2018-01-03T08:45:05.381Z,979.30
2018-01-03T08:46:05.312Z,979.38
2018-01-03T08:47:59.597Z,979.29
2018-01-03T08:48:59.503Z,979.37
2018-01-03T08:50:52.891Z,979.44
2018-01-03T08:51:52.675Z,979.24
2018-01-03T08:53:45.926Z,979.41
2018-01-03T08:54:45.856Z,979.33
2018-01-03T08:56:39.128Z,979.29
2018-01-03T08:57:39.040Z,979.32
2018-01-03T08:59:32.286Z,979.30
2018-01-03T09:00:32.217Z,979.36
2018-01-03T09:02:25.484Z,979.22
2018-01-03T09:03:25.394Z,979.36
2018-01-03T09:05:18.649Z,979.51
2018-01-03T09:06:18.577Z,979.38
2018-01-03T09:08:11.963Z,979.53
2018-01-03T09:09:11.753Z,979.47
2018-01-03T09:11:05.143Z,979.48
2018-01-03T09:12:04.930Z,979.41
2018-01-03T09:13:58.186Z,979.59
2018-01-03T09:14:58.118Z,979.55
2018-01-03T09:16:51.394Z,979.47
2018-01-03T09:17:51.308Z,979.65
2018-01-03T09:19:44.578Z,979.46
2018-01-03T09:20:44.514Z,979.60
2018-01-03T09:22:37.777Z,979.59
2018-01-03T09:23:37.683Z,979.53
2018-01-03T09:25:30.932Z,979.59
2018-01-03T09:26:30.863Z,979.47
2018-01-03T09:28:25.142Z,979.62
2018-01-03T09:29:25.053Z,979.72
2018-01-03T09:31:18.329Z,979.73
2018-01-03T09:32:18.241Z,979.67
2018-01-03T09:34:11.488Z,979.68
2018-01-03T09:35:11.417Z,979.81
2018-01-03T09:37:04.806Z,979.79
2018-01-03T09:38:04.611Z,979.67
2018-01-03T09:39:57.976Z,979.86
2018-01-03T09:40:57.789Z,979.64
2018-01-03T09:42:51.067Z,979.77
2018-01-03T09:43:50.979Z,979.80
2018-01-03T09:45:44.242Z,979.84
2018-01-03T09:46:44.170Z,979.78
2018-01-03T09:48:37.448Z,979.75
2018-01-03T09:49:37.356Z,979.81
2018-01-03T09:51:30.619Z,979.84
2018-01-03T09:52:30.535Z,979.88
2018-01-03T09:54:23.782Z,979.77
2018-01-03T09:55:23.713Z,979.89
2018-01-03T09:57:16.979Z,979.88
2018-01-03T09:58:16.893Z,979.85
2018-01-03T10:00:10.146Z,979.81
2018-01-03T10:01:10.077Z,979.84
2018-01-03T10:03:03.397Z,979.92
2018-01-03T10:04:03.307Z,979.92
2018-01-03T10:05:56.556Z,979.70
2018-01-03T10:06:56.486Z,979.84
2018-01-03T10:08:49.755Z,979.90
2018-01-03T10:09:49.667Z,979.68
2018-01-03T10:11:42.935Z,979.77
2018-01-03T10:12:42.848Z,979.83
2018-01-03T10:14:36.100Z,979.78
2018-01-03T10:15:36.026Z,979.61
2018-01-03T10:17:29.395Z,979.77
2018-01-03T10:18:29.308Z,979.78
2018-01-03T10:20:22.570Z,979.86
2018-01-03T10:21:22.514Z,979.86
2018-01-03T10:23:15.780Z,980.03
2018-01-03T10:24:15.690Z,979.72
2018-01-03T10:26:08.938Z,980.03
2018-01-03T10:27:08.868Z,980.02
2018-01-03T10:29:02.162Z,979.65
2018-01-03T10:30:02.072Z,979.97
2018-01-03T10:31:55.394Z,979.89
2018-01-03T10:32:55.308Z,979.79
2018-01-03T10:34:48.581Z,979.88
2018-01-03T10:35:48.514Z,980.00
2018-01-03T10:37:41.810Z,979.90
2018-01-03T10:38:41.722Z,979.89
2018-01-03T10:40:35.018Z,979.95
2018-01-03T10:41:34.939Z,979.99
2018-01-03T10:43:28.202Z,979.91
2018-01-03T10:44:28.115Z,979.95
2018-01-03T10:46:21.379Z,979.86
2018-01-03T10:47:21.312Z,979.90
2018-01-03T10:49:15.582Z,979.90
2018-01-03T10:50:15.495Z,979.89
2018-01-03T10:52:08.826Z,980.08
2018-01-03T10:53:08.671Z,980.03
2018-01-03T10:55:02.037Z,979.82
2018-01-03T10:56:01.847Z,980.14
2018-01-03T10:57:55.117Z,980.08
2018-01-03T10:58:55.027Z,980.04
2018-01-03T11:00:48.393Z,980.07
2018-01-03T11:01:48.219Z,980.21
2018-01-03T11:03:41.486Z,980.03
2018-01-03T11:04:41.399Z,980.15
2018-01-03T11:06:34.651Z,980.22
2018-01-03T11:07:34.572Z,980.51
2018-01-03T11:09:27.849Z,980.35
2018-01-03T11:10:27.763Z,980.38
2018-01-03T11:12:21.146Z,980.46
2018-01-03T11:13:20.934Z,980.44
2018-01-03T11:15:14.188Z,980.50
2018-01-03T11:16:14.125Z,980.39
2018-01-03T11:18:07.398Z,980.27
2018-01-03T11:19:07.302Z,980.57
2018-01-03T11:21:00.559Z,980.55
2018-01-03T11:22:00.528Z,980.54
2018-01-03T11:23:53.808Z,980.43
2018-01-03T11:24:53.680Z,980.26
2018-01-03T11:26:46.933Z,980.43
2018-01-03T11:27:46.863Z,980.41
2018-01-03T11:29:40.130Z,980.34
2018-01-03T11:30:40.032Z,980.37
2018-01-03T11:32:33.397Z,980.39
2018-01-03T11:33:33.303Z,980.36
2018-01-03T11:35:26.551Z,980.06
2018-01-03T11:36:26.481Z,980.12
2018-01-03T11:38:20.746Z,980.45
2018-01-03T11:39:20.655Z,980.30
2018-01-03T11:41:13.911Z,980.36
2018-01-03T11:42:13.844Z,980.21
2018-01-03T11:44:08.099Z,980.23
2018-01-03T11:45:08.017Z,980.22
2018-01-03T11:47:01.381Z,980.33
2018-01-03T11:48:01.190Z,980.40
2018-01-03T11:49:54.574Z,980.19
2018-01-03T11:50:54.398Z,980.29
2018-01-03T11:52:47.654Z,980.37
2018-01-03T11:53:47.562Z,980.31
2018-01-03T11:55:40.807Z,980.47
2018-01-03T11:56:40.733Z,980.43
2018-01-03T11:58:33.996Z,980.58
2018-01-03T11:59:33.909Z,980.52
2018-01-03T12:01:27.155Z,980.49
2018-01-03T12:02:27.078Z,980.58
2018-01-03T12:04:20.356Z,980.57
2018-01-03T12:05:20.265Z,980.52
2018-01-03T12:07:13.632Z,980.53
2018-01-03T12:08:13.436Z,980.73
2018-01-03T12:10:06.697Z,980.70
2018-01-03T12:11:06.609Z,980.54
2018-01-03T12:13:00.992Z,980.85
2018-01-03T12:14:00.782Z,980.79
2018-01-03T12:15:54.027Z,980.84
2018-01-03T12:16:53.954Z,980.85
2018-01-03T12:18:47.221Z,980.81
2018-01-03T12:19:47.132Z,980.80
2018-01-03T12:21:40.378Z,980.83
2018-01-03T12:22:40.302Z,980.87
2018-01-03T12:24:33.572Z,980.92
2018-01-03T12:25:33.477Z,980.92
2018-01-03T12:27:26.732Z,980.79
2018-01-03T12:28:26.650Z,981.01
2018-01-03T12:30:19.915Z,980.85
2018-01-03T12:31:19.824Z,980.85
2018-01-03T12:33:13.088Z,980.80
2018-01-03T12:34:12.996Z,980.93
2018-01-03T12:36:06.245Z,980.77
2018-01-03T12:37:06.163Z,981.10
2018-01-03T12:38:59.431Z,980.95
2018-01-03T12:39:59.338Z,980.96
2018-01-03T12:41:52.593Z,980.58
2018-01-03T12:42:52.526Z,980.82
2018-01-03T12:44:45.785Z,980.96
2018-01-03T12:45:45.697Z,980.87
2018-01-03T12:47:39.059Z,980.95
2018-01-03T12:48:38.877Z,981.02
2018-01-03T12:50:32.140Z,981.12
2018-01-03T12:51:32.049Z,980.92
2018-01-03T12:53:25.395Z,980.85
2018-01-03T12:54:25.308Z,980.97
2018-01-03T12:56:18.674Z,981.00
2018-01-03T12:57:18.490Z,981.02
2018-01-03T12:59:11.874Z,981.04
2018-01-03T13:00:11.661Z,980.93
2018-01-03T13:02:04.914Z,981.17
2018-01-03T13:03:04.844Z,980.99
2018-01-03T13:04:58.229Z,981.05
2018-01-03T13:05:58.014Z,980.89
2018-01-03T13:07:51.298Z,981.11
2018-01-03T13:08:51.188Z,981.11
2018-01-03T13:10:44.489Z,981.06
2018-01-03T13:11:44.386Z,981.02
2018-01-03T13:13:37.650Z,981.14
2018-01-03T13:14:37.558Z,981.04
2018-01-03T13:16:30.802Z,981.24
2018-01-03T13:17:30.730Z,981.16
2018-01-03T13:19:24.115Z,981.42
2018-01-03T13:20:23.905Z,981.27
2018-01-03T13:22:17.147Z,981.34
2018-01-03T13:23:17.076Z,981.39
2018-01-03T13:25:10.459Z,981.45
2018-01-03T13:26:10.250Z,981.55
2018-01-03T13:28:04.507Z,981.61
2018-01-03T13:29:04.422Z,981.78
2018-01-03T13:30:57.810Z,981.57
2018-01-03T13:31:57.595Z,981.66
2018-01-03T13:33:50.978Z,981.75
2018-01-03T13:34:50.766Z,981.79
2018-01-03T13:36:44.027Z,981.64
2018-01-03T13:37:43.958Z,981.75
2018-01-03T13:39:37.220Z,981.88
2018-01-03T13:40:37.129Z,981.94
2018-01-03T13:42:30.375Z,981.91
2018-01-03T13:43:30.303Z,981.75
2018-01-03T13:45:23.566Z,981.84
2018-01-03T13:46:23.476Z,981.91
2018-01-03T13:48:16.725Z,982.14
2018-01-03T13:49:16.652Z,981.92
2018-01-03T13:51:10.035Z,982.07
2018-01-03T13:52:09.822Z,982.27
2018-01-03T13:54:03.087Z,982.34
2018-01-03T13:55:02.995Z,982.18
2018-01-03T13:56:56.240Z,982.37
2018-01-03T13:57:56.168Z,982.29
2018-01-03T13:59:49.434Z,982.34
2018-01-03T14:00:49.350Z,982.59
2018-01-03T14:02:42.709Z,982.37
2018-01-03T14:03:42.517Z,982.28
2018-01-03T14:05:35.910Z,982.29
2018-01-03T14:06:35.689Z,982.24
2018-01-03T14:08:28.936Z,982.32
2018-01-03T14:09:28.865Z,982.43
2018-01-03T14:11:22.126Z,982.42
2018-01-03T14:12:22.035Z,982.52
2018-01-03T14:14:15.401Z,982.42
2018-01-03T14:15:15.311Z,982.46
2018-01-03T14:17:08.569Z,982.57
2018-01-03T14:18:08.495Z,982.61
2018-01-03T14:20:01.889Z,982.86
2018-01-03T14:21:01.697Z,982.99
2018-01-03T14:22:54.914Z,983.19
2018-01-03T14:23:54.843Z,983.17
2018-01-03T14:25:48.108Z,983.01
2018-01-03T14:26:48.017Z,983.09
2018-01-03T14:28:41.300Z,983.30
2018-01-03T14:29:41.190Z,983.25
2018-01-03T14:31:34.437Z,983.33
2018-01-03T14:32:34.366Z,983.38
2018-01-03T14:34:27.633Z,983.39
2018-01-03T14:35:27.539Z,983.40
2018-01-03T14:37:20.782Z,983.43
2018-01-03T14:38:20.714Z,983.42
2018-01-03T14:40:13.982Z,983.63
2018-01-03T14:41:13.911Z,983.38
2018-01-03T14:43:07.137Z,983.67
2018-01-03T14:44:07.066Z,983.65
2018-01-03T14:46:00.335Z,983.70
2018-01-03T14:47:00.242Z,983.76
2018-01-03T14:48:53.508Z,983.70
2018-01-03T14:49:53.422Z,983.97
2018-01-03T14:51:46.680Z,983.86
2018-01-03T14:52:46.593Z,983.88
2018-01-03T14:54:39.861Z,983.99
2018-01-03T14:55:39.764Z,984.04
2018-01-03T14:57:33.033Z,984.02
2018-01-03T14:58:32.954Z,984.05
2018-01-03T15:00:26.224Z,984.14
2018-01-03T15:01:26.147Z,984.13
2018-01-03T15:03:19.379Z,984.20
2018-01-03T15:04:19.307Z,984.53
2018-01-03T15:06:12.695Z,984.33
2018-01-03T15:07:12.480Z,984.32
2018-01-03T15:09:05.912Z,984.45
2018-01-03T15:10:05.653Z,984.34
2018-01-03T15:11:58.899Z,984.41
2018-01-03T15:12:58.827Z,984.53
2018-01-03T15:14:52.212Z,984.60
2018-01-03T15:15:51.999Z,984.58
2018-01-03T15:17:45.246Z,984.72
2018-01-03T15:18:45.174Z,984.67
2018-01-03T15:20:38.442Z,984.55
2018-01-03T15:21:38.352Z,984.73
2018-01-03T15:23:31.598Z,984.74
2018-01-03T15:24:31.525Z,984.58
2018-01-03T15:26:24.906Z,984.58
2018-01-03T15:27:24.694Z,984.61
2018-01-03T15:29:17.982Z,984.74
2018-01-03T15:30:17.871Z,984.89
2018-01-03T15:32:11.118Z,984.70
2018-01-03T15:33:11.046Z,984.71
2018-01-03T15:35:04.428Z,984.73
2018-01-03T15:36:04.214Z,984.77
2018-01-03T15:37:57.462Z,984.82
2018-01-03T15:38:57.389Z,984.75
2018-01-03T15:40:50.773Z,984.95
2018-01-03T15:41:50.565Z,984.98
2018-01-03T15:43:43.929Z,984.77
2018-01-03T15:44:43.741Z,985.07
2018-01-03T15:46:37.010Z,984.94
2018-01-03T15:47:36.913Z,985.21
2018-01-03T15:49:30.296Z,985.27
2018-01-03T15:50:30.077Z,985.20
2018-01-03T15:52:23.445Z,985.30
2018-01-03T15:53:23.306Z,985.33
2018-01-03T15:55:16.570Z,985.46
2018-01-03T15:56:16.478Z,985.33
2018-01-03T15:58:10.728Z,985.47
2018-01-03T15:59:10.653Z,985.59
2018-01-03T16:01:03.940Z,985.55
2018-01-03T16:02:03.828Z,985.59
2018-01-03T16:03:57.073Z,985.50
2018-01-03T16:04:57.004Z,985.53
2018-01-03T16:06:50.271Z,985.57
2018-01-03T16:07:50.185Z,985.72
2018-01-03T16:09:43.448Z,985.67
2018-01-03T16:10:43.357Z,985.77
2018-01-03T16:12:36.613Z,985.76
2018-01-03T16:13:36.531Z,985.83
2018-01-03T16:15:29.795Z,985.92
2018-01-03T16:16:29.709Z,985.80
2018-01-03T16:18:22.950Z,985.97
2018-01-03T16:19:22.876Z,985.99
2018-01-03T16:21:16.141Z,986.05
2018-01-03T16:22:16.050Z,986.06
2018-01-03T16:24:09.376Z,986.03
2018-01-03T16:25:09.306Z,986.03
2018-01-03T16:27:02.565Z,986.02
2018-01-03T16:28:02.476Z,985.95
2018-01-03T16:29:55.749Z,986.04
2018-01-03T16:30:55.656Z,985.91
2018-01-03T16:32:49.024Z,986.05
2018-01-03T16:33:48.840Z,986.10
2018-01-03T16:35:42.104Z,986.13
2018-01-03T16:36:42.015Z,986.21
2018-01-03T16:38:35.258Z,986.09
2018-01-03T16:39:35.187Z,986.20
2018-01-03T16:41:28.456Z,986.20
2018-01-03T16:42:28.360Z,986.33
2018-01-03T16:44:21.726Z,986.39
2018-01-03T16:45:21.535Z,986.21
2018-01-03T16:47:14.812Z,986.41
2018-01-03T16:48:14.709Z,986.31
2018-01-03T16:50:08.094Z,986.40
2018-01-03T16:51:07.888Z,986.37
2018-01-03T16:53:01.289Z,986.35
2018-01-03T16:54:01.218Z,986.46
2018-01-03T16:55:54.491Z,986.40
2018-01-03T16:56:54.403Z,986.49
2018-01-03T16:58:47.658Z,986.51
2018-01-03T16:59:47.587Z,986.47
2018-01-03T17:01:40.971Z,986.54
2018-01-03T17:02:40.789Z,986.72
2018-01-03T17:04:34.020Z,986.52
2018-01-03T17:05:33.946Z,986.73
2018-01-03T17:07:27.212Z,986.74
2018-01-03T17:08:27.121Z,986.70
2018-01-03T17:10:20.386Z,986.74
2018-01-03T17:11:20.298Z,986.62
2018-01-03T17:13:13.543Z,986.59
2018-01-03T17:14:13.472Z,986.56
2018-01-03T17:16:06.750Z,986.56
2018-01-03T17:17:06.657Z,986.60
2018-01-03T17:18:59.911Z,986.66
2018-01-03T17:19:59.841Z,986.72
2018-01-03T17:21:53.115Z,986.90
2018-01-03T17:22:53.026Z,986.79
2018-01-03T17:24:46.284Z,986.78
2018-01-03T17:25:46.216Z,986.80
2018-01-03T17:27:39.488Z,986.59
2018-01-03T17:28:39.400Z,986.88
2018-01-03T17:30:32.723Z,986.89
2018-01-03T17:31:32.583Z,986.82
2018-01-03T17:33:25.949Z,986.86
2018-01-03T17:34:25.767Z,986.86
2018-01-03T17:36:19.046Z,986.94
2018-01-03T17:37:18.977Z,986.92
2018-01-03T17:39:12.209Z,987.08
2018-01-03T17:40:12.137Z,986.69
2018-01-03T17:42:05.405Z,986.97
2018-01-03T17:43:05.363Z,987.01
2018-01-03T17:44:59.566Z,986.78
2018-01-03T17:45:59.493Z,986.93
2018-01-03T17:47:52.883Z,986.93
2018-01-03T17:48:52.677Z,986.86
2018-01-03T17:50:45.953Z,987.01
2018-01-03T17:51:45.865Z,986.86
2018-01-03T17:53:39.117Z,986.83
2018-01-03T17:54:39.048Z,986.96
2018-01-03T17:56:32.324Z,987.03
2018-01-03T17:57:32.232Z,986.93
2018-01-03T17:59:25.481Z,987.00
2018-01-03T18:00:25.407Z,986.93